Time;durP1;ratioP1;P1;durP2;ratioP2;P2;SDS_P1;SDS_P2;PMS_P1;PMS_P2;Temp;Humidity;BMP_temperature;BMP_pressure;BME280_temperature;BME280_humidity;BME280_pressure;Samples;Min_cycle;Max_cycle;Signal;HPM_P1;HPM_P2
2022/12/13 11:24:25;;;;;;;0.63;0.38;;;7.20;98.30;;;;;;5103825;27;1386987;-81
2022/12/13 11:27:00;;;;;;;3.80;1.65;;;7.60;97.50;;;;;;5131032;27;20510;-85
2022/12/13 11:30:01;;;;;;;1.80;1.45;;;7.60;97.80;;;;;;5076766;28;20082;-81
2022/12/13 11:32:45;;;;;;;1.38;1.33;;;7.30;97.60;;;;;;5093893;28;20044;-81
2022/12/13 11:35:23;;;;;;;0.17;0.17;;;7.50;97.90;;;;;;5076824;28;20411;-81
2022/12/13 11:38:16;;;;;;;1.23;0.95;;;7.70;97.40;;;;;;5110705;28;20044;-81
2022/12/13 11:40:52;;;;;;;2.03;0.98;;;7.90;97.10;;;;;;5093589;28;20047;-81
2022/12/13 11:43:36;;;;;;;2.85;1.30;;;7.90;97.90;;;;;;5093382;28;20043;-81
2022/12/13 11:46:09;;;;;;;0.22;0.22;;;7.70;97.00;;;;;;5092847;28;20040;-81
2022/12/13 11:48:42;;;;;;;1.83;1.40;;;7.60;97.80;;;;;;5076331;28;20046;-80
2022/12/13 11:51:12;;;;;;;0.15;0.15;;;7.60;97.30;;;;;;5093302;28;20048;-81
2022/12/13 11:53:59;;;;;;;2.03;0.82;;;7.40;98.20;;;;;;5076201;28;20506;-80
2022/12/13 11:56:35;;;;;;;1.58;1.50;;;7.10;99.10;;;;;;5076467;28;20522;-81
2022/12/13 11:59:26;;;;;;;2.30;1.63;;;6.80;99.60;;;;;;5092952;28;20411;-81
2022/12/13 12:02:15;;;;;;;1.67;1.58;;;7.00;99.90;;;;;;5092785;28;20499;-81
2022/12/13 12:04:52;;;;;;;0.68;0.68;;;7.10;99.20;;;;;;5084279;28;20495;-81
2022/12/13 12:07:36;;;;;;;3.72;0.93;;;7.30;99.00;;;;;;5092811;28;20484;-81
2022/12/13 12:10:13;;;;;;;1.17;1.10;;;7.40;99.00;;;;;;5076192;28;20047;-81
2022/12/13 12:12:55;;;;;;;0.82;0.82;;;7.70;98.20;;;;;;5075917;28;20048;-81
2022/12/13 12:15:35;;;;;;;7.93;1.20;;;7.80;98.20;;;;;;5075234;28;20051;-81
2022/12/13 12:18:01;;;;;;;1.67;1.05;;;7.70;97.20;;;;;;5076243;28;20395;-80
2022/12/13 12:21:02;;;;;;;2.25;1.25;;;7.70;98.10;;;;;;5059090;28;20054;-81
2022/12/13 12:24:06;;;;;;;0.10;0.10;;;7.70;98.50;;;;;;5092842;28;20056;-81
2022/12/13 12:26:56;;;;;;;0.75;0.75;;;7.50;97.90;;;;;;5069910;28;20108;-81
2022/12/13 12:29:38;;;;;;;0.45;0.22;;;7.40;98.00;;;;;;5075674;28;20100;-81
2022/12/13 12:32:51;;;;;;;0.65;0.65;;;7.10;98.40;;;;;;5092711;28;20044;-81
2022/12/13 12:35:26;;;;;;;1.20;0.55;;;6.80;99.10;;;;;;5081226;28;20040;-81
2022/12/13 12:38:16;;;;;;;1.65;1.30;;;6.70;99.20;;;;;;5062251;28;20051;-81
2022/12/13 12:40:54;;;;;;;1.98;1.13;;;6.50;99.80;;;;;;5078926;28;20047;-81
2022/12/13 12:43:26;;;;;;;2.08;0.22;;;6.10;99.90;;;;;;5062604;28;20051;-81
2022/12/13 12:46:21;;;;;;;2.10;0.82;;;5.70;99.90;;;;;;5061899;28;20139;-81
2022/12/13 12:49:08;;;;;;;1.50;0.77;;;5.40;99.90;;;;;;5079349;28;20400;-81
2022/12/13 12:51:51;;;;;;;0.70;0.38;;;5.10;99.90;;;;;;5078700;28;20135;-81
2022/12/13 12:55:02;;;;;;;2.38;0.95;;;5.00;99.90;;;;;;5079037;28;20058;-80
2022/12/13 12:57:52;;;;;;;0.65;0.52;;;4.90;99.90;;;;;;5061637;28;20090;-81
2022/12/13 13:00:22;;;;;;;0.30;0.30;;;4.80;99.90;;;;;;5061581;28;20063;-81
2022/12/13 13:03:11;;;;;;;2.08;0.65;;;4.70;99.90;;;;;;5078022;28;20048;-81
2022/12/13 13:05:51;;;;;;;1.08;1.00;;;4.50;99.90;;;;;;5078382;28;20118;-81
2022/12/13 13:08:24;;;;;;;1.00;0.50;;;4.40;99.90;;;;;;5078287;28;20109;-81
2022/12/13 13:10:51;;;;;;;0.45;0.45;;;4.30;99.90;;;;;;5061705;28;20060;-81
2022/12/13 13:13:58;;;;;;;1.13;0.45;;;4.10;99.90;;;;;;5077892;28;20407;-81
2022/12/13 13:16:26;;;;;;;0.85;0.73;;;3.90;99.90;;;;;;5048109;28;20098;-81
2022/12/13 13:18:54;;;;;;;2.65;0.43;;;3.80;99.90;;;;;;5078071;28;20040;-81
2022/12/13 13:21:23;;;;;;;3.28;0.75;;;3.50;99.90;;;;;;5077826;28;20506;-81
2022/12/13 13:24:01;;;;;;;0.25;0.13;;;3.40;99.90;;;;;;5077493;28;20139;-81
2022/12/13 13:26:27;;;;;;;0.65;0.32;;;3.30;99.90;;;;;;5077829;28;20104;-80
2022/12/13 13:28:53;;;;;;;0.15;0.13;;;3.20;99.90;;;;;;5077521;28;20047;-81
2022/12/13 13:31:19;;;;;;;2.10;0.80;;;3.00;99.90;;;;;;5077774;28;20044;-80
2022/12/13 13:33:47;;;;;;;1.60;0.82;;;3.10;99.90;;;;;;5061101;28;20048;-81
2022/12/13 13:36:38;;;;;;;1.38;0.47;;;3.00;99.90;;;;;;5077651;28;20545;-80
2022/12/13 13:39:04;;;;;;;0.82;0.30;;;3.00;99.90;;;;;;5060400;28;20549;-81
2022/12/13 13:41:51;;;;;;;2.42;0.52;;;2.90;99.90;;;;;;5077431;28;20044;-81
2022/12/13 13:44:45;;;;;;;2.10;0.82;;;2.90;99.90;;;;;;5077818;28;20052;-80
2022/12/13 13:47:29;;;;;;;2.45;1.45;;;2.80;99.90;;;;;;5076177;28;20132;-81
2022/12/13 13:50:07;;;;;;;0.88;0.77;;;2.70;99.90;;;;;;5060836;28;20083;-81
2022/12/13 13:53:13;;;;;;;0.95;0.88;;;2.60;99.90;;;;;;5077142;28;20189;-81
2022/12/13 13:55:57;;;;;;;;;;;2.50;99.90;;;;;;5094363;28;20547;-81
2022/12/13 13:59:10;;;;;;;0.82;0.82;;;2.50;99.90;;;;;;5095082;28;19920;-81
2022/12/13 14:01:54;;;;;;;0.98;0.22;;;2.40;99.90;;;;;;5077000;28;20083;-80
2022/12/13 14:05:07;;;;;;;0.10;0.10;;;2.30;99.90;;;;;;5077375;28;20040;-82
2022/12/13 14:08:04;;;;;;;0.98;0.57;;;2.10;99.90;;;;;;5077261;28;20048;-82
2022/12/13 14:10:46;;;;;;;1.45;0.45;;;2.10;99.90;;;;;;5060713;28;20076;-82
2022/12/13 14:13:43;;;;;;;0.38;0.38;;;2.10;99.90;;;;;;5060404;28;20050;-82
2022/12/13 14:16:09;;;;;;;1.45;0.73;;;1.90;99.90;;;;;;5076542;28;20139;-83
2022/12/13 14:19:03;;;;;;;3.28;0.65;;;1.90;99.90;;;;;;5060359;28;20087;-82
2022/12/13 14:21:47;;;;;;;2.15;0.30;;;1.80;99.90;;;;;;5054803;28;20140;-82
2022/12/13 14:24:50;;;;;;;4.07;0.88;;;1.70;99.90;;;;;;5056630;28;20412;-86
2022/12/13 14:27:53;;;;;;;0.55;0.40;;;1.60;99.90;;;;;;5075453;28;20507;-83
2022/12/13 14:30:23;;;;;;;1.52;1.13;;;1.50;99.90;;;;;;5076884;28;20051;-82
2022/12/13 14:32:50;;;;;;;2.47;1.48;;;1.40;99.90;;;;;;5077077;28;20403;-82
2022/12/13 14:35:29;;;;;;;0.40;0.40;;;1.30;99.90;;;;;;5093671;28;20048;-81
2022/12/13 14:38:18;;;;;;;0.28;0.28;;;1.30;99.90;;;;;;5077213;28;20495;-82
2022/12/13 14:40:50;;;;;;;0.22;0.22;;;1.30;99.90;;;;;;5077153;28;20131;-83
2022/12/13 14:43:23;;;;;;;0.10;0.10;;;1.20;99.90;;;;;;5093453;28;20098;-82
2022/12/13 14:45:58;;;;;;;0.40;0.40;;;1.10;99.90;;;;;;5076165;28;20138;-82
2022/12/13 14:48:24;;;;;;;0.20;0.20;;;1.10;99.90;;;;;;5093826;28;20040;-83
2022/12/13 14:50:51;;;;;;;1.48;0.60;;;1.00;99.90;;;;;;5060137;28;20055;-82
2022/12/13 14:53:32;;;;;;;2.45;1.88;;;1.00;99.90;;;;;;5076129;28;20052;-83
2022/12/13 14:56:11;;;;;;;1.48;1.40;;;0.90;99.90;;;;;;5076589;28;20044;-82
2022/12/13 14:58:37;;;;;;;0.10;0.10;;;1.00;99.90;;;;;;5076287;28;20048;-82
2022/12/13 15:01:26;;;;;;;0.32;0.32;;;0.80;99.90;;;;;;5092901;28;20051;-83
2022/12/13 15:03:52;;;;;;;1.15;1.08;;;0.60;99.90;;;;;;5093473;28;20044;-81
2022/12/13 15:06:19;;;;;;;0.80;0.60;;;0.60;99.90;;;;;;5092878;28;20044;-82
2022/12/13 15:08:46;;;;;;;0.98;0.77;;;0.50;99.90;;;;;;5074778;28;20052;-82
2022/12/13 15:11:12;;;;;;;0.63;0.63;;;0.40;99.90;;;;;;5076777;28;20404;-82
2022/12/13 15:13:45;;;;;;;1.85;0.85;;;0.30;99.90;;;;;;5056594;28;20047;-82
2022/12/13 15:16:24;;;;;;;5.15;1.42;;;0.20;99.90;;;;;;5072659;28;20123;-82
2022/12/13 15:19:13;;;;;;;2.45;1.40;;;0.10;99.90;;;;;;5072919;28;20048;-82
2022/12/13 15:21:39;;;;;;;2.53;0.88;;;0.00;99.90;;;;;;5056194;28;20422;-82
2022/12/13 15:24:05;;;;;;;1.77;0.32;;;-0.10;99.90;;;;;;5089030;28;20068;-82
2022/12/13 15:26:33;;;;;;;0.98;0.98;;;-0.10;99.90;;;;;;5072931;28;20053;-82
2022/12/13 15:29:03;;;;;;;0.43;0.43;;;-0.20;99.90;;;;;;5072551;28;20048;-82
2022/12/13 15:31:31;;;;;;;1.55;1.20;;;-0.10;99.90;;;;;;5073005;28;20040;-82
2022/12/13 15:34:22;;;;;;;1.25;0.40;;;-0.30;99.90;;;;;;5072725;28;20404;-82
2022/12/13 15:36:48;;;;;;;2.90;0.38;;;-0.40;99.90;;;;;;5056259;28;20048;-82
2022/12/13 15:39:14;;;;;;;0.10;0.10;;;-0.30;99.90;;;;;;5092663;28;20582;-82
2022/12/13 15:41:48;;;;;;;0.55;0.55;;;-0.40;99.90;;;;;;5076107;28;20157;-82
2022/12/13 15:44:29;;;;;;;0.47;0.47;;;-0.50;99.90;;;;;;5092520;28;20101;-82
2022/12/13 15:47:03;;;;;;;0.70;0.70;;;-0.50;99.90;;;;;;5075654;28;20063;-82
2022/12/13 15:49:39;;;;;;;1.13;0.32;;;-0.50;99.90;;;;;;5076115;28;20189;-82
2022/12/13 15:52:40;;;;;;;0.93;0.10;;;-0.60;99.90;;;;;;5092824;28;20055;-82
2022/12/13 15:55:05;;;;;;;1.35;0.82;;;-0.70;99.90;;;;;;5076420;28;20134;-81
2022/12/13 15:57:48;;;;;;;3.13;1.77;;;-0.80;99.90;;;;;;5092343;28;20091;-82
2022/12/13 16:00:16;;;;;;;0.35;0.35;;;-0.80;99.90;;;;;;5092751;28;20078;-83
2022/12/13 16:02:57;;;;;;;0.55;0.55;;;-0.80;99.90;;;;;;5092824;28;20044;-82
2022/12/13 16:05:27;;;;;;;2.60;1.38;;;-0.90;99.90;;;;;;5092978;28;20040;-83
2022/12/13 16:07:54;;;;;;;0.73;0.73;;;-0.90;99.90;;;;;;5093193;28;20051;-83
2022/12/13 16:10:21;;;;;;;0.00;0.00;;;-0.90;99.90;;;;;;5078846;28;20059;-83
2022/12/13 16:12:58;;;;;;;0.15;0.15;;;-1.00;99.90;;;;;;5079714;28;20089;-83
2022/12/13 16:15:45;;;;;;;0.75;0.75;;;-1.00;99.90;;;;;;5079052;28;20044;-83
2022/12/13 16:18:32;;;;;;;0.77;0.65;;;-1.10;99.90;;;;;;5065245;28;20048;-83
2022/12/13 16:20:58;;;;;;;0.90;0.85;;;-1.10;99.90;;;;;;5079755;28;20087;-83
2022/12/13 16:23:24;;;;;;;0.88;0.88;;;-1.10;99.90;;;;;;5078932;28;20158;-83
2022/12/13 16:25:55;;;;;;;0.82;0.82;;;-1.20;99.90;;;;;;5079715;28;20062;-83
2022/12/13 16:28:21;;;;;;;3.83;2.45;;;-1.20;99.90;;;;;;5081786;28;20047;-83
2022/12/13 16:30:59;;;;;;;3.50;1.75;;;-1.30;99.90;;;;;;5080272;28;20044;-83
2022/12/13 16:33:28;;;;;;;0.40;0.40;;;-1.40;99.90;;;;;;5080255;28;20052;-84
2022/12/13 16:35:57;;;;;;;0.55;0.55;;;-1.10;99.90;;;;;;5079178;28;20420;-83
2022/12/13 16:38:24;;;;;;;0.88;0.88;;;-1.50;99.90;;;;;;5079035;28;20044;-84
2022/12/13 16:40:53;;;;;;;0.08;0.08;;;-1.50;99.90;;;;;;5096521;28;20139;-85
2022/12/13 16:43:25;;;;;;;0.20;0.20;;;-1.50;99.90;;;;;;5079146;28;20583;-87
2022/12/13 16:45:53;;;;;;;0.65;0.65;;;-1.60;99.90;;;;;;5096335;28;20062;-86
2022/12/13 16:48:19;;;;;;;2.20;0.70;;;-1.60;99.90;;;;;;5096310;28;20396;-87
2022/12/13 16:50:48;;;;;;;0.82;0.20;;;-1.60;99.90;;;;;;5079488;28;20044;-85
2022/12/13 16:53:15;;;;;;;0.32;0.32;;;-1.70;99.90;;;;;;5096035;28;20059;-86
2022/12/13 16:55:41;;;;;;;0.63;0.63;;;-1.10;99.90;;;;;;5062921;28;20518;-85
2022/12/13 16:58:11;;;;;;;0.93;0.50;;;-1.70;99.90;;;;;;5078807;28;20083;-83
2022/12/13 17:00:40;;;;;;;1.63;1.60;;;-1.70;99.90;;;;;;5095589;28;20055;-83
2022/12/13 17:03:06;;;;;;;0.22;0.13;;;-1.70;99.90;;;;;;5095272;28;20039;-82
2022/12/13 17:05:33;;;;;;;0.50;0.50;;;-1.70;99.90;;;;;;5095473;28;20391;-82
2022/12/13 17:08:02;;;;;;;0.38;0.38;;;-1.70;99.90;;;;;;5078234;28;20040;-83
2022/12/13 17:10:28;;;;;;;1.88;1.65;;;-1.70;99.90;;;;;;5061874;28;20048;-82
2022/12/13 17:12:54;;;;;;;0.65;0.65;;;-1.70;99.90;;;;;;5094801;28;20055;-83
2022/12/13 17:15:20;;;;;;;1.17;1.17;;;-1.40;99.90;;;;;;5078215;28;20130;-83
2022/12/13 17:17:48;;;;;;;0.40;0.40;;;-1.40;99.90;;;;;;5078252;28;20047;-82
2022/12/13 17:20:17;;;;;;;7.22;2.97;;;-1.70;99.90;;;;;;5077909;28;20054;-82
2022/12/13 17:22:44;;;;;;;1.15;1.05;;;-1.50;99.90;;;;;;5078357;28;20099;-83
2022/12/13 17:25:11;;;;;;;0.50;0.28;;;-1.70;99.90;;;;;;5078124;28;20063;-83
2022/12/13 17:27:38;;;;;;;2.33;2.15;;;-1.80;99.90;;;;;;5096460;28;20054;-83
2022/12/13 17:30:11;;;;;;;1.38;1.08;;;-1.40;99.90;;;;;;5078247;28;20051;-82
2022/12/13 17:32:37;;;;;;;0.52;0.52;;;-1.80;99.90;;;;;;5078159;28;20507;-83
2022/12/13 17:35:03;;;;;;;0.43;0.28;;;-1.90;99.90;;;;;;5077836;28;20043;-82
2022/12/13 17:37:30;;;;;;;0.35;0.35;;;-1.90;99.90;;;;;;5078122;28;20058;-82
2022/12/13 17:39:59;;;;;;;0.38;0.38;;;-1.90;99.90;;;;;;5077758;28;20055;-82
2022/12/13 17:42:25;;;;;;;0.57;0.57;;;-1.90;99.90;;;;;;5094562;28;20079;-82
2022/12/13 17:44:50;;;;;;;1.75;1.65;;;-2.00;99.90;;;;;;5094380;28;20380;-83
2022/12/13 17:47:16;;;;;;;0.45;0.45;;;-2.00;99.90;;;;;;5094734;28;20040;-83
2022/12/13 17:49:45;;;;;;;0.55;0.55;;;-1.80;99.90;;;;;;5094686;28;20044;-83
2022/12/13 17:52:11;;;;;;;0.10;0.10;;;-2.00;99.90;;;;;;5061275;28;20484;-84
2022/12/13 17:54:39;;;;;;;0.22;0.22;;;-2.10;99.90;;;;;;5061292;28;20172;-89
2022/12/13 17:57:05;;;;;;;0.55;0.52;;;-2.20;99.90;;;;;;5077377;28;20373;-85
2022/12/13 17:59:31;;;;;;;1.60;1.50;;;-2.10;99.90;;;;;;5077843;28;20169;-85
2022/12/13 18:01:59;;;;;;;0.60;0.60;;;-2.00;99.90;;;;;;5077725;28;20052;-84
2022/12/13 18:04:25;;;;;;;1.10;1.00;;;-2.20;99.90;;;;;;5077938;28;20059;-85
2022/12/13 18:06:51;;;;;;;0.50;0.50;;;-2.30;99.90;;;;;;5094780;28;20472;-85
2022/12/13 18:09:19;;;;;;;1.38;1.05;;;-2.30;99.90;;;;;;5094660;28;20048;-83
2022/12/13 18:11:47;;;;;;;0.22;0.20;;;-2.00;99.90;;;;;;5077610;28;20054;-85
2022/12/13 18:14:13;;;;;;;1.10;1.00;;;-0.80;99.90;;;;;;5077797;28;20048;-85
2022/12/13 18:16:49;;;;;;;0.73;0.73;;;-2.20;99.90;;;;;;5093975;28;20407;-85
2022/12/13 18:19:15;;;;;;;1.10;0.95;;;-2.20;99.90;;;;;;5094383;28;20052;-85
2022/12/13 18:21:44;;;;;;;3.30;1.60;;;-2.30;99.90;;;;;;5093974;28;20119;-85
2022/12/13 18:24:11;;;;;;;0.50;0.50;;;-2.40;99.90;;;;;;5077080;28;20158;-87
2022/12/13 18:26:36;;;;;;;0.45;0.45;;;-2.40;99.90;;;;;;5094256;28;20133;-85
2022/12/13 18:29:03;;;;;;;0.13;0.13;;;-2.40;99.90;;;;;;5093853;28;20096;-83
2022/12/13 18:31:32;;;;;;;3.40;1.40;;;-2.10;99.90;;;;;;5094577;28;20063;-86
2022/12/13 18:33:58;;;;;;;0.30;0.30;;;-2.30;99.90;;;;;;5093545;28;20549;-84
2022/12/13 18:36:24;;;;;;;0.32;0.32;;;-2.40;99.90;;;;;;5077150;28;20097;-84
2022/12/13 18:38:51;;;;;;;0.50;0.50;;;-2.00;99.90;;;;;;5060546;28;20051;-85
2022/12/13 18:41:19;;;;;;;0.70;0.70;;;-2.40;99.90;;;;;;5094055;28;20040;-86
2022/12/13 18:43:45;;;;;;;4.30;1.02;;;-2.00;99.90;;;;;;5076065;28;20054;-86
2022/12/13 18:46:14;;;;;;;1.17;1.08;;;-2.50;99.90;;;;;;5076951;28;20134;-85
2022/12/13 18:48:40;;;;;;;2.28;0.95;;;-2.60;99.90;;;;;;5094210;28;20040;-86
2022/12/13 18:51:08;;;;;;;0.95;0.50;;;-2.00;99.90;;;;;;5094004;28;20040;-83
2022/12/13 18:53:36;;;;;;;3.40;1.70;;;-2.40;99.90;;;;;;5076443;28;20055;-83
2022/12/13 18:56:06;;;;;;;1.92;1.02;;;-2.50;99.90;;;;;;5093363;28;20373;-83
2022/12/13 18:58:32;;;;;;;0.32;0.32;;;-2.40;99.90;;;;;;5093140;28;20044;-82
2022/12/13 19:00:59;;;;;;;1.17;1.00;;;-2.40;99.90;;;;;;5093368;28;20418;-83
2022/12/13 19:03:25;;;;;;;0.32;0.32;;;-2.50;99.90;;;;;;5075863;28;20048;-83
2022/12/13 19:05:55;;;;;;;0.68;0.68;;;-2.50;99.90;;;;;;5093553;28;20044;-83
2022/12/13 19:08:27;;;;;;;0.98;0.98;;;-2.50;99.90;;;;;;5077438;28;20050;-83
2022/12/13 19:10:58;;;;;;;0.63;0.35;;;-2.20;99.90;;;;;;5076743;28;20055;-83
2022/12/13 19:13:24;;;;;;;0.52;0.52;;;-2.50;99.90;;;;;;5076579;28;20052;-82
2022/12/13 19:15:52;;;;;;;0.10;0.05;;;-2.60;99.90;;;;;;5092680;28;20044;-82
2022/12/13 19:18:18;;;;;;;0.20;0.20;;;-2.60;99.90;;;;;;5093096;28;20056;-82
2022/12/13 19:20:48;;;;;;;0.10;0.10;;;-2.60;99.90;;;;;;5076513;28;20487;-83
2022/12/13 19:23:15;;;;;;;3.58;0.55;;;-2.50;99.90;;;;;;5077367;28;20048;-82
2022/12/13 19:25:41;;;;;;;1.35;1.25;;;-2.50;99.90;;;;;;5096580;28;20100;-82
2022/12/13 19:28:07;;;;;;;1.50;1.45;;;-2.60;99.90;;;;;;5063046;28;20138;-82
2022/12/13 19:30:38;;;;;;;1.98;1.45;;;-2.50;99.90;;;;;;5096381;28;20065;-82
2022/12/13 19:33:06;;;;;;;1.77;1.02;;;-2.50;99.90;;;;;;5079336;28;20134;-82
2022/12/13 19:35:32;;;;;;;1.20;0.80;;;-2.60;99.90;;;;;;5095725;28;20052;-82
2022/12/13 19:37:58;;;;;;;0.85;0.85;;;-2.60;99.90;;;;;;5079254;28;20100;-83
2022/12/13 19:40:24;;;;;;;0.38;0.38;;;-2.70;99.90;;;;;;5079522;28;20055;-82
2022/12/13 19:42:52;;;;;;;0.05;0.05;;;-2.70;99.90;;;;;;5079664;28;20050;-82
2022/12/13 19:45:18;;;;;;;0.57;0.57;;;-2.70;99.90;;;;;;5098848;28;20126;-82
2022/12/13 19:47:44;;;;;;;0.32;0.32;;;-2.70;99.90;;;;;;5100083;28;20105;-83
2022/12/13 19:50:10;;;;;;;0.10;0.10;;;-2.30;99.90;;;;;;5083246;28;20499;-83
2022/12/13 19:52:37;;;;;;;0.70;0.43;;;-2.70;99.90;;;;;;5083147;28;20042;-83
2022/12/13 19:55:04;;;;;;;1.58;1.05;;;-2.70;99.90;;;;;;5083354;28;20043;-82
2022/12/13 19:57:31;;;;;;;0.20;0.20;;;-2.80;99.90;;;;;;5099973;28;20097;-82
2022/12/13 20:00:00;;;;;;;6.90;1.85;;;-2.50;99.90;;;;;;5099907;28;20055;-82
2022/12/13 20:02:26;;;;;;;2.17;1.80;;;-2.80;99.90;;;;;;5083109;28;20036;-82
2022/12/13 20:04:52;;;;;;;0.75;0.75;;;-2.80;99.90;;;;;;5066253;28;20070;-82
2022/12/13 20:07:17;;;;;;;2.22;1.92;;;-2.80;99.90;;;;;;5049730;28;20368;-83
2022/12/13 20:09:43;;;;;;;0.70;0.70;;;-2.80;99.90;;;;;;5050069;28;20047;-83
2022/12/13 20:12:09;;;;;;;1.55;0.65;;;-2.80;99.90;;;;;;5082995;28;20471;-82
2022/12/13 20:14:35;;;;;;;1.75;1.27;;;-2.80;99.90;;;;;;5066138;28;20090;-82
2022/12/13 20:17:00;;;;;;;1.45;1.35;;;-2.80;99.90;;;;;;5065565;28;20111;-82
2022/12/13 20:19:29;;;;;;;1.42;1.33;;;-2.80;99.90;;;;;;5082497;28;20051;-83
2022/12/13 20:21:55;;;;;;;0.73;0.73;;;-2.30;99.90;;;;;;5068131;28;20130;-83
2022/12/13 20:24:21;;;;;;;1.02;0.70;;;-2.70;99.90;;;;;;5101091;28;20118;-83
2022/12/13 20:26:47;;;;;;;0.40;0.40;;;-2.80;99.90;;;;;;5083109;28;20100;-82
2022/12/13 20:29:13;;;;;;;0.32;0.32;;;-2.80;99.90;;;;;;5066421;28;20079;-83
2022/12/13 20:31:39;;;;;;;0.15;0.15;;;-2.70;99.90;;;;;;5053188;28;20083;-83
2022/12/13 20:34:08;;;;;;;0.40;0.40;;;-2.30;99.90;;;;;;5090141;28;20047;-82
2022/12/13 20:36:37;;;;;;;0.45;0.45;;;-2.70;99.90;;;;;;5073565;28;20415;-82
2022/12/13 20:39:04;;;;;;;1.27;0.93;;;-2.70;99.90;;;;;;5101466;28;20096;-82
2022/12/13 20:41:32;;;;;;;1.88;0.77;;;-2.60;99.90;;;;;;5101780;28;20143;-82
2022/12/13 20:43:59;;;;;;;1.35;1.35;;;-2.60;99.90;;;;;;5103610;28;20044;-82
2022/12/13 20:46:25;;;;;;;7.05;2.03;;;-2.60;99.90;;;;;;5082960;28;20079;-83
2022/12/13 20:48:56;;;;;;;0.82;0.82;;;-2.60;99.90;;;;;;5082377;28;20055;-82
2022/12/13 20:51:25;;;;;;;0.80;0.80;;;-2.50;99.90;;;;;;5082487;28;20047;-82
2022/12/13 20:53:52;;;;;;;0.57;0.57;;;-2.50;99.90;;;;;;5098964;28;20052;-82
2022/12/13 20:56:21;;;;;;;0.52;0.52;;;-2.60;99.90;;;;;;5098259;28;20054;-81
2022/12/13 20:58:49;;;;;;;1.58;0.57;;;-2.60;99.90;;;;;;5099589;28;20556;-83
2022/12/13 21:01:21;;;;;;;1.63;1.50;;;-2.60;99.90;;;;;;5081900;28;20139;-83
2022/12/13 21:03:49;;;;;;;0.80;0.80;;;-2.60;99.90;;;;;;5080872;28;20094;-81
2022/12/13 21:06:15;;;;;;;0.73;0.73;;;-2.50;99.90;;;;;;5098637;28;20051;-82
2022/12/13 21:08:49;;;;;;;1.08;0.98;;;-2.50;99.90;;;;;;5081764;28;20047;-82
2022/12/13 21:11:26;;;;;;;2.20;1.98;;;-2.50;99.90;;;;;;5082928;28;20458;-82
2022/12/13 21:13:58;;;;;;;0.93;0.93;;;-2.50;99.90;;;;;;5081567;28;20047;-82
2022/12/13 21:16:25;;;;;;;3.17;1.45;;;-2.60;99.90;;;;;;5081114;28;20442;-82
2022/12/13 21:18:53;;;;;;;1.13;1.02;;;-2.50;99.90;;;;;;5098552;28;20039;-83
2022/12/13 21:21:19;;;;;;;0.52;0.52;;;-2.50;99.90;;;;;;5081314;28;20625;-83
2022/12/13 21:23:44;;;;;;;0.22;0.13;;;-2.20;99.90;;;;;;5097805;28;20060;-83
2022/12/13 21:26:10;;;;;;;1.48;1.38;;;-2.50;99.90;;;;;;5098514;28;20447;-83
2022/12/13 21:28:36;;;;;;;3.92;1.38;;;-2.50;99.90;;;;;;5081164;28;20491;-84
2022/12/13 21:31:05;;;;;;;0.30;0.30;;;-2.50;99.90;;;;;;5048165;28;20055;-83
2022/12/13 21:33:33;;;;;;;0.00;0.00;;;-2.50;99.90;;;;;;5081619;28;20044;-83
2022/12/13 21:36:20;;;;;;;0.73;0.73;;;-2.30;99.90;;;;;;5098401;28;20050;-83
2022/12/13 21:38:46;;;;;;;2.03;1.30;;;-2.50;99.90;;;;;;5098057;28;20040;-82
2022/12/13 21:41:12;;;;;;;1.88;1.58;;;-2.50;99.90;;;;;;5064683;28;20043;-83
2022/12/13 21:43:39;;;;;;;0.65;0.65;;;-2.50;99.90;;;;;;5065184;28;20051;-83
2022/12/13 21:46:07;;;;;;;0.38;0.38;;;-2.50;99.90;;;;;;5081561;28;20055;-83
2022/12/13 21:48:34;;;;;;;0.50;0.50;;;-2.50;99.90;;;;;;5081955;28;20055;-83
2022/12/13 21:51:02;;;;;;;0.47;0.47;;;-2.10;99.90;;;;;;5064792;28;20476;-83
2022/12/13 21:53:28;;;;;;;0.70;0.70;;;-2.50;99.90;;;;;;5064872;28;20108;-83
2022/12/13 21:59:14;;;;;;;0.85;0.85;;;-2.40;99.90;;;;;;5097894;28;20051;-83
2022/12/13 22:01:25;;;;;;;0.60;0.60;;;-2.40;99.90;;;;;;5097799;28;20402;-83
2022/12/13 22:03:50;;;;;;;0.40;0.40;;;-2.30;99.90;;;;;;5097543;28;20051;-83
2022/12/13 22:06:16;;;;;;;1.75;0.63;;;-2.40;99.90;;;;;;5097527;28;20036;-83
2022/12/13 22:08:42;;;;;;;0.20;0.10;;;-2.40;99.90;;;;;;5063992;28;20040;-83
2022/12/13 22:11:16;;;;;;;0.30;0.22;;;-2.40;99.90;;;;;;5080965;28;20126;-83
2022/12/13 22:13:42;;;;;;;2.23;2.13;;;-2.40;99.90;;;;;;5098029;28;20054;-83
2022/12/13 22:16:09;;;;;;;0.52;0.30;;;-2.40;99.90;;;;;;5063645;28;20047;-83
2022/12/13 22:18:35;;;;;;;1.30;0.85;;;-2.40;99.90;;;;;;5080528;28;20091;-83
2022/12/13 22:21:00;;;;;;;0.10;0.10;;;-2.50;99.90;;;;;;5080579;28;20090;-82
2022/12/13 22:23:26;;;;;;;0.43;0.20;;;-2.50;99.90;;;;;;5080227;28;20066;-83
2022/12/13 22:25:52;;;;;;;0.13;0.13;;;-2.50;99.90;;;;;;5080497;28;20050;-83
2022/12/13 22:28:18;;;;;;;1.77;1.67;;;-2.60;99.90;;;;;;5097614;28;20055;-83
2022/12/13 22:30:52;;;;;;;1.65;1.52;;;-2.60;99.90;;;;;;5080231;28;20048;-83
2022/12/13 22:33:17;;;;;;;11.15;1.00;;;-2.60;99.90;;;;;;5097780;28;20043;-83
2022/12/13 22:35:43;;;;;;;0.20;0.20;;;-2.70;99.90;;;;;;5063686;28;20043;-83
2022/12/13 22:38:09;;;;;;;0.43;0.43;;;-2.70;99.90;;;;;;5047411;28;20048;-82
2022/12/13 22:40:37;;;;;;;0.28;0.20;;;-2.70;99.90;;;;;;5096951;28;20491;-83
2022/12/13 22:43:03;;;;;;;1.40;0.85;;;-2.70;99.90;;;;;;5063530;28;20082;-83
2022/12/13 22:45:28;;;;;;;1.67;1.60;;;-2.70;99.90;;;;;;5096442;28;20075;-83
2022/12/13 22:47:54;;;;;;;0.30;0.30;;;-2.70;99.90;;;;;;5080198;28;20517;-83
2022/12/13 22:50:20;;;;;;;0.00;0.00;;;-2.70;99.90;;;;;;5080023;28;20426;-83
2022/12/13 22:52:45;;;;;;;8.38;1.65;;;-2.80;99.90;;;;;;5079985;28;20119;-83
2022/12/13 22:55:14;;;;;;;1.67;1.58;;;-2.70;99.90;;;;;;5096920;28;20131;-83
2022/12/13 22:57:39;;;;;;;1.83;1.27;;;-2.80;99.90;;;;;;5063305;28;20079;-83
2022/12/13 23:00:08;;;;;;;1.08;1.08;;;-2.90;99.90;;;;;;5096584;28;20062;-83
2022/12/13 23:02:35;;;;;;;1.40;1.33;;;-2.90;99.90;;;;;;5079661;28;20083;-83
2022/12/13 23:05:04;;;;;;;1.60;1.38;;;-3.00;99.90;;;;;;5096699;28;20131;-83
2022/12/13 23:07:30;;;;;;;1.80;0.50;;;-3.00;99.90;;;;;;5080000;28;20110;-83
2022/12/13 23:09:55;;;;;;;3.90;1.55;;;-3.00;99.90;;;;;;5063407;28;20061;-83
2022/12/13 23:15:06;;;;;;;0.37;0.37;;;-3.10;99.90;;;;;;5096669;28;20463;-83
2022/12/13 23:17:32;;;;;;;0.55;0.47;;;-3.20;99.90;;;;;;5096088;28;20082;-83
2022/12/13 23:19:58;;;;;;;0.55;0.55;;;-3.20;99.90;;;;;;5080017;28;20086;-83
2022/12/13 23:22:25;;;;;;;1.08;1.02;;;-3.20;99.90;;;;;;5063331;28;20048;-83
2022/12/13 23:24:51;;;;;;;1.27;1.02;;;-3.30;99.90;;;;;;5079363;28;20048;-83
2022/12/13 23:27:18;;;;;;;2.10;0.35;;;-3.10;99.90;;;;;;5079877;28;20487;-83
2022/12/13 23:29:44;;;;;;;0.10;0.10;;;-3.20;99.90;;;;;;5096645;28;20502;-82
2022/12/13 23:32:10;;;;;;;0.90;0.90;;;-3.30;99.90;;;;;;5079672;28;20055;-83
2022/12/13 23:34:41;;;;;;;0.30;0.30;;;-3.20;99.90;;;;;;5096550;28;20051;-83
2022/12/13 23:37:07;;;;;;;0.75;0.57;;;-3.40;99.90;;;;;;5096482;28;20039;-83
2022/12/13 23:39:32;;;;;;;0.80;0.80;;;-3.30;99.90;;;;;;5079846;28;20047;-84
2022/12/13 23:41:58;;;;;;;0.30;0.30;;;-3.40;99.90;;;;;;5063185;28;20089;-83
2022/12/13 23:44:24;;;;;;;0.30;0.30;;;-3.30;99.90;;;;;;5079546;28;20040;-83
2022/12/13 23:46:49;;;;;;;1.02;1.02;;;-3.30;99.90;;;;;;5096155;28;20048;-84
2022/12/13 23:49:15;;;;;;;0.40;0.40;;;-3.30;99.90;;;;;;5079589;28;20051;-84
2022/12/13 23:51:41;;;;;;;2.10;1.55;;;-3.30;99.90;;;;;;5079699;28;20043;-84
2022/12/13 23:54:07;;;;;;;0.80;0.32;;;-3.40;99.90;;;;;;5079796;28;20040;-83
2022/12/13 23:56:32;;;;;;;1.10;0.85;;;-3.40;99.90;;;;;;5096259;28;20067;-83
2022/12/13 23:58:58;;;;;;;0.98;0.98;;;-3.40;99.90;;;;;;5079382;28;20068;-83
